FranceFixed distance
Luchon Aneto Trail - L'Ultra Lat
8–9 Jul2023
Distance
85km
Finishers
211196 men15 women
Winning time
9:57:48h
Median pace
5.23km/h
Pace distribution
211 finishers · 4.33–8.53 km/h · mean 5.33
Every finisher ran the same 85 km course, so these paces are directly comparable.
Histogram of finisher pace. 211 finishers ranged from 4.33 to 8.53 kilometres per hour, with a mean of 5.33 and a median of 5.23. The busiest band is 4.5 to 5.0 kilometres per hour, with 68 finishers.
Results
Ranks 51–100 of 211
| Rank | Runner | Time | Pace | Cat. | Placing |
|---|---|---|---|---|---|
| 51 | 14:58:17h | 5.68 | M35 | 50th M · 15th M35 | |
| 52 | Juflonik | 15:01:29h | 5.66 | M40 | 51st M · 9th M40 |
| 53 | 15:01:31h | 5.66 | M23 | 52nd M · 18th M23 | |
| 54 | 15:01:39h | 5.66 | M35 | 53rd M · 16th M35 | |
| 55 | 15:01:41h | 5.66 | M40 | 54th M · 10th M40 | |
| 56 | Xlraid | 15:08:39h | 5.61 | M40 | 55th M · 11th M40 |
| 57 | Baudet du Poitou | 15:09:13h | 5.61 | M55 | 56th M · 3rd M55 |
| 58 | 15:11:40h | 5.59 | M50 | 57th M · 2nd M50 | |
| 59 | Team Trail Cholet / Tr... | 15:15:58h | 5.57 | M45 | 58th M · 8th M45 |
| 60 | 15:16:52h | 5.56 | M40 | 59th M · 12th M40 | |
| 61 | Amboise Tennis de Table | 15:16:59h | 5.56 | M23 | 60th M · 19th M23 |
| 62 | 15:19:22h | 5.55 | M50 | 61st M · 3rd M50 | |
| 63 | 15:19:51h | 5.54 | M23 | 62nd M · 20th M23 | |
| 64 | 15:20:00h | 5.54 | M45 | 63rd M · 9th M45 | |
| 65 | 15:21:04h | 5.54 | M40 | 64th M · 13th M40 | |
| 66 | 15:21:51h | 5.53 | M40 | 65th M · 14th M40 | |
| 67 | 15:23:05h | 5.53 | M23 | 66th M · 21st M23 | |
| 68 | 15:25:05h | 5.51 | M23 | 67th M · 22nd M23 | |
| 69 | 15:25:24h | 5.51 | M23 | 68th M · 23rd M23 | |
| 70 | Team Trail Cholet | 15:26:09h | 5.51 | M23 | 69th M · 24th M23 |
| 71 | CAF de PAU | 15:28:39h | 5.49 | M50 | 70th M · 4th M50 |
| 72 | Team Trail 17 | 15:31:04h | 5.48 | M50 | 71st M · 5th M50 |
| 73 | Intersport | 15:31:14h | 5.48 | M23 | 72nd M · 25th M23 |
| 74 | Dominicaine Athletisme | 15:34:21h | 5.46 | W45 | 2nd F · 1st W45 |
| 75 | Team Lilou BEL Ange | 15:34:47h | 5.46 | M23 | 73rd M · 26th M23 |
| 76 | Usac Angers | 15:35:37h | 5.45 | M45 | 74th M · 10th M45 |
| 77 | Esprit Trail Anjou - E2A | 15:35:40h | 5.45 | M40 | 75th M · 15th M40 |
| 78 | Entente Angevine Athle... | 15:35:41h | 5.45 | M50 | 76th M · 6th M50 |
| 79 | 15:36:01h | 5.45 | M40 | 77th M · 16th M40 | |
| 80 | les Gars Lactiques | 15:36:39h | 5.45 | M50 | 78th M · 7th M50 |
| 81 | 15:37:03h | 5.44 | M35 | 79th M · 17th M35 | |
| 82 | 15:38:15h | 5.44 | M35 | 80th M · 18th M35 | |
| 83 | 15:40:07h | 5.42 | M45 | 81st M · 11th M45 | |
| 84 | Merville | 15:41:24h | 5.42 | M40 | 82nd M · 17th M40 |
| 85 | TPT | 15:45:01h | 5.40 | M50 | 83rd M · 8th M50 |
| 86 | Cherveux Run'Ature | 15:46:10h | 5.39 | M23 | 84th M · 27th M23 |
| 87 | 15:46:30h | 5.39 | W23 | 3rd F · 1st W23 | |
| 88 | Carbo'Run / Millepattes | 15:47:24h | 5.38 | M35 | 85th M · 19th M35 |
| 89 | 15:47:54h | 5.38 | M23 | 86th M · 28th M23 | |
| 90 | 15:47:55h | 5.38 | M23 | 87th M · 29th M23 | |
| 91 | 15:48:02h | 5.38 | M23 | 88th M · 30th M23 | |
| 92 | Defi Outdoor | 15:48:07h | 5.38 | M45 | 89th M · 12th M45 |
| 93 | E2A | 15:48:15h | 5.38 | M23 | 90th M · 31st M23 |
| 94 | 15:48:32h | 5.38 | M40 | 91st M · 18th M40 | |
| 95 | Millau | 15:52:44h | 5.35 | M50 | 92nd M · 9th M50 |
| 96 | 15:53:36h | 5.35 | M35 | 93rd M · 20th M35 | |
| 97 | Esclops D'Azun | 15:54:52h | 5.34 | M35 | 94th M · 21st M35 |
| 98 | 15:58:50h | 5.32 | M35 | 95th M · 22nd M35 | |
| 99 | Patatrail Luchon | 16:01:54h | 5.30 | W35 | 4th F · 2nd W35 |
| 100 | Team Compex | 16:04:36h | 5.29 | M23 | 96th M · 32nd M23 |
- 5150th M · 15th M35Time14:58:17hPace5.68Cat.M35
- 52Juflonik51st M · 9th M40Time15:01:29hPace5.66Cat.M40
- 5352nd M · 18th M23Time15:01:31hPace5.66Cat.M23
- 5453rd M · 16th M35Time15:01:39hPace5.66Cat.M35
- 5554th M · 10th M40Time15:01:41hPace5.66Cat.M40
- 56Xlraid55th M · 11th M40Time15:08:39hPace5.61Cat.M40
- 57Baudet du Poitou56th M · 3rd M55Time15:09:13hPace5.61Cat.M55
- 5857th M · 2nd M50Time15:11:40hPace5.59Cat.M50
- 59Team Trail Cholet / Tr...58th M · 8th M45Time15:15:58hPace5.57Cat.M45
- 6059th M · 12th M40Time15:16:52hPace5.56Cat.M40
- 61Amboise Tennis de Table60th M · 19th M23Time15:16:59hPace5.56Cat.M23
- 6261st M · 3rd M50Time15:19:22hPace5.55Cat.M50
- 6362nd M · 20th M23Time15:19:51hPace5.54Cat.M23
- 6463rd M · 9th M45Time15:20:00hPace5.54Cat.M45
- 6564th M · 13th M40Time15:21:04hPace5.54Cat.M40
- 6665th M · 14th M40Time15:21:51hPace5.53Cat.M40
- 6766th M · 21st M23Time15:23:05hPace5.53Cat.M23
- 6867th M · 22nd M23Time15:25:05hPace5.51Cat.M23
- 6968th M · 23rd M23Time15:25:24hPace5.51Cat.M23
- 70Team Trail Cholet69th M · 24th M23Time15:26:09hPace5.51Cat.M23
- 71CAF de PAU70th M · 4th M50Time15:28:39hPace5.49Cat.M50
- 72Team Trail 1771st M · 5th M50Time15:31:04hPace5.48Cat.M50
- 73Intersport72nd M · 25th M23Time15:31:14hPace5.48Cat.M23
- 74Dominicaine Athletisme2nd F · 1st W45Time15:34:21hPace5.46Cat.W45
- 75Team Lilou BEL Ange73rd M · 26th M23Time15:34:47hPace5.46Cat.M23
- 76Usac Angers74th M · 10th M45Time15:35:37hPace5.45Cat.M45
- 77Esprit Trail Anjou - E2A75th M · 15th M40Time15:35:40hPace5.45Cat.M40
- 78Entente Angevine Athle...76th M · 6th M50Time15:35:41hPace5.45Cat.M50
- 7977th M · 16th M40Time15:36:01hPace5.45Cat.M40
- 80les Gars Lactiques78th M · 7th M50Time15:36:39hPace5.45Cat.M50
- 8179th M · 17th M35Time15:37:03hPace5.44Cat.M35
- 8280th M · 18th M35Time15:38:15hPace5.44Cat.M35
- 8381st M · 11th M45Time15:40:07hPace5.42Cat.M45
- 84Merville82nd M · 17th M40Time15:41:24hPace5.42Cat.M40
- 85TPT83rd M · 8th M50Time15:45:01hPace5.40Cat.M50
- 86Cherveux Run'Ature84th M · 27th M23Time15:46:10hPace5.39Cat.M23
- 873rd F · 1st W23Time15:46:30hPace5.39Cat.W23
- 88Carbo'Run / Millepattes85th M · 19th M35Time15:47:24hPace5.38Cat.M35
- 8986th M · 28th M23Time15:47:54hPace5.38Cat.M23
- 9087th M · 29th M23Time15:47:55hPace5.38Cat.M23
- 9188th M · 30th M23Time15:48:02hPace5.38Cat.M23
- 92Defi Outdoor89th M · 12th M45Time15:48:07hPace5.38Cat.M45
- 93E2A90th M · 31st M23Time15:48:15hPace5.38Cat.M23
- 9491st M · 18th M40Time15:48:32hPace5.38Cat.M40
- 95Millau92nd M · 9th M50Time15:52:44hPace5.35Cat.M50
- 9693rd M · 20th M35Time15:53:36hPace5.35Cat.M35
- 97Esclops D'Azun94th M · 21st M35Time15:54:52hPace5.34Cat.M35
- 9895th M · 22nd M35Time15:58:50hPace5.32Cat.M35
- 99Patatrail Luchon4th F · 2nd W35Time16:01:54hPace5.30Cat.W35
- 100Team Compex96th M · 32nd M23Time16:04:36hPace5.29Cat.M23
Showing ranks 51–100 of 211